sensor_id;sensor_type;location;lat;lon;timestamp;pressure;altitude;pressure_sealevel;temperature;humidity
64316;BME280;50652;51.482;-0.580;2023-06-10T00:02:20;101237.79;;;19.72;52.31
64316;BME280;50652;51.482;-0.580;2023-06-10T00:04:48;101238.30;;;19.68;52.22
64316;BME280;50652;51.482;-0.580;2023-06-10T00:07:15;101237.79;;;20.01;51.97
64316;BME280;50652;51.482;-0.580;2023-06-10T00:09:43;101239.13;;;19.81;52.25
64316;BME280;50652;51.482;-0.580;2023-06-10T00:12:11;101239.82;;;19.52;51.83
64316;BME280;50652;51.482;-0.580;2023-06-10T00:14:40;101238.40;;;19.59;52.61
64316;BME280;50652;51.482;-0.580;2023-06-10T00:17:07;101240.17;;;19.48;52.79
64316;BME280;50652;51.482;-0.580;2023-06-10T00:19:33;101241.52;;;19.49;52.66
64316;BME280;50652;51.482;-0.580;2023-06-10T00:22:03;101242.30;;;19.47;52.58
64316;BME280;50652;51.482;-0.580;2023-06-10T00:24:30;101236.55;;;19.71;52.58
64316;BME280;50652;51.482;-0.580;2023-06-10T00:26:57;101233.55;;;19.14;53.02
64316;BME280;50652;51.482;-0.580;2023-06-10T00:29:25;101232.81;;;19.69;52.41
64316;BME280;50652;51.482;-0.580;2023-06-10T00:31:52;101229.26;;;18.67;53.75
64316;BME280;50652;51.482;-0.580;2023-06-10T00:34:20;101228.59;;;19.34;52.49
64316;BME280;50652;51.482;-0.580;2023-06-10T00:36:47;101221.90;;;18.89;53.33
64316;BME280;50652;51.482;-0.580;2023-06-10T00:39:14;101222.18;;;18.31;54.31
64316;BME280;50652;51.482;-0.580;2023-06-10T00:41:41;101223.94;;;19.35;53.11
64316;BME280;50652;51.482;-0.580;2023-06-10T00:44:09;101227.13;;;19.25;52.68
64316;BME280;50652;51.482;-0.580;2023-06-10T00:46:36;101227.76;;;19.06;52.51
64316;BME280;50652;51.482;-0.580;2023-06-10T00:49:04;101228.98;;;19.40;52.26
64316;BME280;50652;51.482;-0.580;2023-06-10T00:51:31;101222.95;;;19.13;52.35
64316;BME280;50652;51.482;-0.580;2023-06-10T00:53:59;101220.49;;;19.23;53.01
64316;BME280;50652;51.482;-0.580;2023-06-10T00:56:27;101223.40;;;17.71;55.53
64316;BME280;50652;51.482;-0.580;2023-06-10T00:58:54;101221.85;;;18.75;53.49
64316;BME280;50652;51.482;-0.580;2023-06-10T01:01:21;101219.16;;;18.56;54.01
64316;BME280;50652;51.482;-0.580;2023-06-10T01:03:48;101218.74;;;18.37;53.80
64316;BME280;50652;51.482;-0.580;2023-06-10T01:06:23;101214.76;;;18.45;53.40
64316;BME280;50652;51.482;-0.580;2023-06-10T01:08:59;101213.55;;;18.74;53.61
64316;BME280;50652;51.482;-0.580;2023-06-10T01:11:35;101209.56;;;18.54;53.53
64316;BME280;50652;51.482;-0.580;2023-06-10T01:14:05;101213.51;;;18.89;53.15
64316;BME280;50652;51.482;-0.580;2023-06-10T01:16:33;101216.82;;;18.38;54.22
64316;BME280;50652;51.482;-0.580;2023-06-10T01:19:03;101215.21;;;18.69;53.36
64316;BME280;50652;51.482;-0.580;2023-06-10T01:21:30;101215.23;;;19.05;53.21
64316;BME280;50652;51.482;-0.580;2023-06-10T01:23:57;101213.00;;;18.57;53.44
64316;BME280;50652;51.482;-0.580;2023-06-10T01:26:30;101213.98;;;18.80;53.07
64316;BME280;50652;51.482;-0.580;2023-06-10T01:29:05;101214.08;;;18.91;53.23
64316;BME280;50652;51.482;-0.580;2023-06-10T01:31:41;101214.75;;;17.34;55.98
64316;BME280;50652;51.482;-0.580;2023-06-10T01:34:12;101210.13;;;17.73;55.04
64316;BME280;50652;51.482;-0.580;2023-06-10T01:36:41;101213.47;;;18.03;54.96
64316;BME280;50652;51.482;-0.580;2023-06-10T01:39:12;101210.73;;;18.03;54.33
64316;BME280;50652;51.482;-0.580;2023-06-10T01:41:40;101211.16;;;18.13;54.03
64316;BME280;50652;51.482;-0.580;2023-06-10T01:44:08;101210.61;;;17.89;54.60
64316;BME280;50652;51.482;-0.580;2023-06-10T01:46:36;101212.51;;;17.58;55.00
64316;BME280;50652;51.482;-0.580;2023-06-10T01:49:04;101209.65;;;18.41;54.38
64316;BME280;50652;51.482;-0.580;2023-06-10T01:51:31;101212.91;;;17.52;55.10
64316;BME280;50652;51.482;-0.580;2023-06-10T01:53:59;101210.56;;;18.35;53.89
64316;BME280;50652;51.482;-0.580;2023-06-10T01:56:26;101215.95;;;17.45;55.05
64316;BME280;50652;51.482;-0.580;2023-06-10T01:58:53;101212.90;;;18.28;54.36
64316;BME280;50652;51.482;-0.580;2023-06-10T02:01:21;101214.14;;;18.19;54.17
64316;BME280;50652;51.482;-0.580;2023-06-10T02:03:48;101215.12;;;17.20;56.09
64316;BME280;50652;51.482;-0.580;2023-06-10T02:06:15;101216.13;;;17.35;55.09
64316;BME280;50652;51.482;-0.580;2023-06-10T02:08:42;101214.75;;;17.76;54.78
64316;BME280;50652;51.482;-0.580;2023-06-10T02:11:10;101215.38;;;18.06;54.17
64316;BME280;50652;51.482;-0.580;2023-06-10T02:13:38;101218.51;;;17.00;56.34
64316;BME280;50652;51.482;-0.580;2023-06-10T02:16:05;101216.12;;;17.46;55.64
64316;BME280;50652;51.482;-0.580;2023-06-10T02:18:32;101213.75;;;18.07;54.44
64316;BME280;50652;51.482;-0.580;2023-06-10T02:21:00;101214.91;;;18.02;53.93
64316;BME280;50652;51.482;-0.580;2023-06-10T02:23:27;101212.29;;;17.69;54.52
64316;BME280;50652;51.482;-0.580;2023-06-10T02:25:54;101208.26;;;18.23;53.82
64316;BME280;50652;51.482;-0.580;2023-06-10T02:28:21;101209.09;;;18.26;53.81
64316;BME280;50652;51.482;-0.580;2023-06-10T02:30:49;101216.08;;;18.20;53.40
64316;BME280;50652;51.482;-0.580;2023-06-10T02:33:16;101212.55;;;17.69;54.46
64316;BME280;50652;51.482;-0.580;2023-06-10T02:35:43;101212.89;;;17.14;54.96
64316;BME280;50652;51.482;-0.580;2023-06-10T02:38:10;101212.95;;;17.27;54.77
64316;BME280;50652;51.482;-0.580;2023-06-10T02:40:38;101205.63;;;17.25;55.60
64316;BME280;50652;51.482;-0.580;2023-06-10T02:43:06;101202.82;;;17.37;55.32
64316;BME280;50652;51.482;-0.580;2023-06-10T02:45:33;101205.29;;;17.49;55.12
64316;BME280;50652;51.482;-0.580;2023-06-10T02:48:00;101212.50;;;17.13;55.70
64316;BME280;50652;51.482;-0.580;2023-06-10T02:50:27;101212.64;;;17.46;55.11
64316;BME280;50652;51.482;-0.580;2023-06-10T02:52:54;101216.86;;;17.52;54.99
64316;BME280;50652;51.482;-0.580;2023-06-10T02:55:22;101217.30;;;16.44;57.19
64316;BME280;50652;51.482;-0.580;2023-06-10T02:57:49;101217.47;;;17.33;55.30
64316;BME280;50652;51.482;-0.580;2023-06-10T03:00:17;101216.85;;;17.15;55.49
64316;BME280;50652;51.482;-0.580;2023-06-10T03:02:44;101214.98;;;17.78;54.20
64316;BME280;50652;51.482;-0.580;2023-06-10T03:05:11;101217.36;;;17.26;54.99
64316;BME280;50652;51.482;-0.580;2023-06-10T03:07:39;101218.10;;;17.08;55.72
64316;BME280;50652;51.482;-0.580;2023-06-10T03:10:08;101218.12;;;17.24;55.27
64316;BME280;50652;51.482;-0.580;2023-06-10T03:12:35;101213.06;;;17.36;54.89
64316;BME280;50652;51.482;-0.580;2023-06-10T03:15:03;101217.13;;;17.27;55.02
64316;BME280;50652;51.482;-0.580;2023-06-10T03:17:30;101210.84;;;17.61;54.18
64316;BME280;50652;51.482;-0.580;2023-06-10T03:19:57;101206.02;;;17.65;54.00
64316;BME280;50652;51.482;-0.580;2023-06-10T03:22:25;101207.87;;;17.70;54.08
64316;BME280;50652;51.482;-0.580;2023-06-10T03:24:52;101206.86;;;17.84;53.65
64316;BME280;50652;51.482;-0.580;2023-06-10T03:27:18;101204.43;;;17.13;54.61
64316;BME280;50652;51.482;-0.580;2023-06-10T03:29:46;101204.24;;;17.64;54.15
64316;BME280;50652;51.482;-0.580;2023-06-10T03:32:13;101203.48;;;17.39;54.17
64316;BME280;50652;51.482;-0.580;2023-06-10T03:34:40;101206.05;;;17.64;53.89
64316;BME280;50652;51.482;-0.580;2023-06-10T03:37:08;101204.13;;;17.67;53.84
64316;BME280;50652;51.482;-0.580;2023-06-10T03:39:35;101204.61;;;17.64;53.84
64316;BME280;50652;51.482;-0.580;2023-06-10T03:42:03;101203.00;;;18.07;53.56
64316;BME280;50652;51.482;-0.580;2023-06-10T03:44:30;101207.80;;;17.59;54.06
64316;BME280;50652;51.482;-0.580;2023-06-10T03:46:57;101209.17;;;17.06;55.23
64316;BME280;50652;51.482;-0.580;2023-06-10T03:49:24;101204.99;;;17.45;54.17
64316;BME280;50652;51.482;-0.580;2023-06-10T03:51:51;101209.92;;;17.42;54.36
64316;BME280;50652;51.482;-0.580;2023-06-10T03:54:19;101212.65;;;16.96;55.54
64316;BME280;50652;51.482;-0.580;2023-06-10T03:56:46;101213.79;;;17.14;55.21
64316;BME280;50652;51.482;-0.580;2023-06-10T03:59:14;101213.12;;;17.38;54.50
64316;BME280;50652;51.482;-0.580;2023-06-10T04:01:41;101210.25;;;17.56;54.07
64316;BME280;50652;51.482;-0.580;2023-06-10T04:04:08;101208.80;;;17.47;54.25
64316;BME280;50652;51.482;-0.580;2023-06-10T04:06:36;101206.96;;;17.38;54.31
64316;BME280;50652;51.482;-0.580;2023-06-10T04:09:03;101209.34;;;17.10;54.74
64316;BME280;50652;51.482;-0.580;2023-06-10T04:11:31;101208.00;;;16.74;55.74
64316;BME280;50652;51.482;-0.580;2023-06-10T04:13:58;101207.71;;;17.16;55.01
64316;BME280;50652;51.482;-0.580;2023-06-10T04:16:26;101207.71;;;16.55;56.28
64316;BME280;50652;51.482;-0.580;2023-06-10T04:18:53;101206.73;;;17.52;55.44
64316;BME280;50652;51.482;-0.580;2023-06-10T04:21:20;101205.43;;;17.02;55.58
64316;BME280;50652;51.482;-0.580;2023-06-10T04:23:47;101204.78;;;17.47;54.36
64316;BME280;50652;51.482;-0.580;2023-06-10T04:26:15;101209.23;;;17.34;54.63
64316;BME280;50652;51.482;-0.580;2023-06-10T04:28:43;101210.76;;;17.63;54.09
64316;BME280;50652;51.482;-0.580;2023-06-10T04:31:10;101214.61;;;17.78;53.71
64316;BME280;50652;51.482;-0.580;2023-06-10T04:33:37;101216.72;;;16.54;56.49
64316;BME280;50652;51.482;-0.580;2023-06-10T04:36:05;101211.71;;;17.67;54.02
64316;BME280;50652;51.482;-0.580;2023-06-10T04:38:32;101216.10;;;17.24;54.86
64316;BME280;50652;51.482;-0.580;2023-06-10T04:40:59;101218.89;;;17.25;54.93
64316;BME280;50652;51.482;-0.580;2023-06-10T04:43:26;101214.48;;;17.45;54.49
64316;BME280;50652;51.482;-0.580;2023-06-10T04:45:54;101217.31;;;17.19;55.19
64316;BME280;50652;51.482;-0.580;2023-06-10T04:48:21;101210.56;;;17.30;54.97
64316;BME280;50652;51.482;-0.580;2023-06-10T04:50:48;101205.19;;;17.49;54.81
64316;BME280;50652;51.482;-0.580;2023-06-10T04:53:15;101210.12;;;17.11;55.81
64316;BME280;50652;51.482;-0.580;2023-06-10T04:55:42;101209.99;;;17.15;55.68
64316;BME280;50652;51.482;-0.580;2023-06-10T04:58:10;101206.16;;;17.28;55.36
64316;BME280;50652;51.482;-0.580;2023-06-10T05:00:37;101204.39;;;16.98;56.14
64316;BME280;50652;51.482;-0.580;2023-06-10T05:03:04;101202.57;;;17.92;55.37
64316;BME280;50652;51.482;-0.580;2023-06-10T05:05:31;101200.76;;;17.34;55.50
64316;BME280;50652;51.482;-0.580;2023-06-10T05:07:59;101197.66;;;17.52;55.37
64316;BME280;50652;51.482;-0.580;2023-06-10T05:10:25;101205.04;;;17.35;55.66
64316;BME280;50652;51.482;-0.580;2023-06-10T05:12:53;101205.59;;;17.65;55.10
64316;BME280;50652;51.482;-0.580;2023-06-10T05:15:20;101211.79;;;17.19;56.00
64316;BME280;50652;51.482;-0.580;2023-06-10T05:17:47;101207.21;;;17.68;55.11
64316;BME280;50652;51.482;-0.580;2023-06-10T05:20:15;101208.13;;;17.12;56.07
64316;BME280;50652;51.482;-0.580;2023-06-10T05:22:42;101203.03;;;17.46;55.75
64316;BME280;50652;51.482;-0.580;2023-06-10T05:25:10;101203.34;;;17.36;55.63
64316;BME280;50652;51.482;-0.580;2023-06-10T05:27:38;101203.63;;;17.88;55.08
64316;BME280;50652;51.482;-0.580;2023-06-10T05:30:06;101203.41;;;17.85;55.21
64316;BME280;50652;51.482;-0.580;2023-06-10T05:32:33;101200.26;;;17.83;55.31
64316;BME280;50652;51.482;-0.580;2023-06-10T05:35:00;101197.35;;;17.90;55.37
64316;BME280;50652;51.482;-0.580;2023-06-10T05:37:27;101194.95;;;17.83;55.62
64316;BME280;50652;51.482;-0.580;2023-06-10T05:39:54;101194.52;;;17.76;55.39
64316;BME280;50652;51.482;-0.580;2023-06-10T05:42:21;101196.03;;;18.15;54.74
64316;BME280;50652;51.482;-0.580;2023-06-10T05:44:49;101199.79;;;17.81;55.25
64316;BME280;50652;51.482;-0.580;2023-06-10T05:47:16;101203.92;;;17.82;55.59
64316;BME280;50652;51.482;-0.580;2023-06-10T05:49:43;101200.17;;;18.20;54.77
64316;BME280;50652;51.482;-0.580;2023-06-10T05:52:10;101199.92;;;17.57;55.48
64316;BME280;50652;51.482;-0.580;2023-06-10T05:54:37;101204.10;;;18.32;54.79
64316;BME280;50652;51.482;-0.580;2023-06-10T05:57:05;101207.32;;;18.22;54.45
64316;BME280;50652;51.482;-0.580;2023-06-10T05:59:32;101205.68;;;17.88;54.94
64316;BME280;50652;51.482;-0.580;2023-06-10T06:01:59;101209.50;;;18.10;54.51
64316;BME280;50652;51.482;-0.580;2023-06-10T06:04:26;101207.13;;;18.07;54.99
64316;BME280;50652;51.482;-0.580;2023-06-10T06:06:53;101210.49;;;17.93;54.89
64316;BME280;50652;51.482;-0.580;2023-06-10T06:09:20;101212.02;;;17.89;55.00
64316;BME280;50652;51.482;-0.580;2023-06-10T06:11:47;101210.68;;;17.69;54.75
64316;BME280;50652;51.482;-0.580;2023-06-10T06:14:15;101215.96;;;18.49;54.02
64316;BME280;50652;51.482;-0.580;2023-06-10T06:16:42;101219.44;;;18.52;54.20
64316;BME280;50652;51.482;-0.580;2023-06-10T06:19:10;101219.68;;;18.65;53.72
64316;BME280;50652;51.482;-0.580;2023-06-10T06:21:37;101216.95;;;18.40;54.04
64316;BME280;50652;51.482;-0.580;2023-06-10T06:24:05;101220.86;;;18.24;54.55
64316;BME280;50652;51.482;-0.580;2023-06-10T06:26:32;101211.69;;;18.91;53.77
64316;BME280;50652;51.482;-0.580;2023-06-10T06:29:00;101208.60;;;18.85;53.77
64316;BME280;50652;51.482;-0.580;2023-06-10T06:31:27;101209.01;;;19.26;52.79
64316;BME280;50652;51.482;-0.580;2023-06-10T06:33:55;101203.00;;;18.94;53.28
64316;BME280;50652;51.482;-0.580;2023-06-10T06:36:22;101201.92;;;18.62;53.92
64316;BME280;50652;51.482;-0.580;2023-06-10T06:38:49;101209.96;;;19.47;52.71
64316;BME280;50652;51.482;-0.580;2023-06-10T06:41:16;101207.45;;;19.72;52.29
64316;BME280;50652;51.482;-0.580;2023-06-10T06:43:43;101206.78;;;19.60;52.78
64316;BME280;50652;51.482;-0.580;2023-06-10T06:46:11;101205.10;;;19.83;52.44
64316;BME280;50652;51.482;-0.580;2023-06-10T06:48:37;101203.93;;;19.56;52.34
64316;BME280;50652;51.482;-0.580;2023-06-10T06:51:04;101208.58;;;19.87;52.77
64316;BME280;50652;51.482;-0.580;2023-06-10T06:53:31;101205.68;;;19.87;52.24
64316;BME280;50652;51.482;-0.580;2023-06-10T06:55:59;101206.25;;;18.32;53.88
64316;BME280;50652;51.482;-0.580;2023-06-10T06:58:26;101210.12;;;19.68;52.59
64316;BME280;50652;51.482;-0.580;2023-06-10T07:00:53;101213.66;;;19.74;52.65
64316;BME280;50652;51.482;-0.580;2023-06-10T07:03:21;101211.78;;;19.87;52.06
64316;BME280;50652;51.482;-0.580;2023-06-10T07:05:48;101210.32;;;20.02;51.78
64316;BME280;50652;51.482;-0.580;2023-06-10T07:08:16;101209.41;;;20.11;52.04
64316;BME280;50652;51.482;-0.580;2023-06-10T07:10:43;101205.82;;;20.27;51.39
64316;BME280;50652;51.482;-0.580;2023-06-10T07:13:10;101206.64;;;20.69;50.64
64316;BME280;50652;51.482;-0.580;2023-06-10T07:15:38;101209.49;;;20.68;50.70
64316;BME280;50652;51.482;-0.580;2023-06-10T07:18:06;101214.55;;;20.09;51.84
64316;BME280;50652;51.482;-0.580;2023-06-10T07:20:33;101217.99;;;20.78;50.77
64316;BME280;50652;51.482;-0.580;2023-06-10T07:23:00;101211.33;;;21.13;49.98
64316;BME280;50652;51.482;-0.580;2023-06-10T07:25:27;101207.62;;;20.29;50.80
64316;BME280;50652;51.482;-0.580;2023-06-10T07:27:55;101207.28;;;21.14;50.34
64316;BME280;50652;51.482;-0.580;2023-06-10T07:30:22;101206.93;;;21.36;49.89
64316;BME280;50652;51.482;-0.580;2023-06-10T07:32:48;101202.05;;;21.17;50.69
64316;BME280;50652;51.482;-0.580;2023-06-10T07:35:16;101203.44;;;21.23;50.16
64316;BME280;50652;51.482;-0.580;2023-06-10T07:37:43;101199.19;;;21.73;49.10
64316;BME280;50652;51.482;-0.580;2023-06-10T07:40:10;101204.59;;;21.17;49.94
64316;BME280;50652;51.482;-0.580;2023-06-10T07:42:37;101207.65;;;21.17;49.57
64316;BME280;50652;51.482;-0.580;2023-06-10T07:45:06;101206.28;;;21.56;49.15
64316;BME280;50652;51.482;-0.580;2023-06-10T07:47:34;101210.61;;;22.19;47.57
64316;BME280;50652;51.482;-0.580;2023-06-10T07:50:02;101212.89;;;22.51;47.97
64316;BME280;50652;51.482;-0.580;2023-06-10T07:52:29;101209.79;;;22.70;47.58
64316;BME280;50652;51.482;-0.580;2023-06-10T07:54:56;101206.11;;;22.46;47.78
64316;BME280;50652;51.482;-0.580;2023-06-10T07:57:23;101209.64;;;22.59;47.64
64316;BME280;50652;51.482;-0.580;2023-06-10T07:59:51;101205.26;;;23.07;46.80
64316;BME280;50652;51.482;-0.580;2023-06-10T08:02:18;101204.54;;;22.56;46.42
64316;BME280;50652;51.482;-0.580;2023-06-10T08:04:45;101204.45;;;23.15;47.03
64316;BME280;50652;51.482;-0.580;2023-06-10T08:07:18;101208.06;;;22.95;46.85
64316;BME280;50652;51.482;-0.580;2023-06-10T08:09:45;101212.07;;;22.95;46.98
64316;BME280;50652;51.482;-0.580;2023-06-10T08:12:12;101206.42;;;22.98;47.16
64316;BME280;50652;51.482;-0.580;2023-06-10T08:14:39;101206.63;;;23.01;48.33
64316;BME280;50652;51.482;-0.580;2023-06-10T08:17:06;101206.08;;;23.44;46.74
64316;BME280;50652;51.482;-0.580;2023-06-10T08:19:33;101203.65;;;23.71;46.42
64316;BME280;50652;51.482;-0.580;2023-06-10T08:22:02;101205.16;;;23.55;46.08
64316;BME280;50652;51.482;-0.580;2023-06-10T08:24:30;101202.89;;;24.07;45.66
64316;BME280;50652;51.482;-0.580;2023-06-10T08:26:56;101202.78;;;23.72;44.73
64316;BME280;50652;51.482;-0.580;2023-06-10T08:29:24;101200.03;;;24.51;44.10
64316;BME280;50652;51.482;-0.580;2023-06-10T08:31:52;101199.62;;;24.28;44.25
64316;BME280;50652;51.482;-0.580;2023-06-10T08:34:19;101203.86;;;24.19;44.28
64316;BME280;50652;51.482;-0.580;2023-06-10T08:36:46;101208.34;;;24.15;45.77
64316;BME280;50652;51.482;-0.580;2023-06-10T08:39:14;101210.21;;;24.11;45.45
64316;BME280;50652;51.482;-0.580;2023-06-10T08:41:43;101208.57;;;23.72;44.49
64316;BME280;50652;51.482;-0.580;2023-06-10T08:44:16;101205.95;;;24.95;43.82
64316;BME280;50652;51.482;-0.580;2023-06-10T08:46:45;101207.36;;;24.24;43.89
64316;BME280;50652;51.482;-0.580;2023-06-10T08:49:18;101212.05;;;24.07;44.06
64316;BME280;50652;51.482;-0.580;2023-06-10T08:51:45;101210.69;;;24.72;44.14
64316;BME280;50652;51.482;-0.580;2023-06-10T08:54:19;101207.10;;;24.47;43.75
64316;BME280;50652;51.482;-0.580;2023-06-10T08:56:49;101204.33;;;25.18;43.28
64316;BME280;50652;51.482;-0.580;2023-06-10T08:59:17;101205.31;;;25.20;42.77
64316;BME280;50652;51.482;-0.580;2023-06-10T09:01:45;101202.47;;;25.70;41.95
64316;BME280;50652;51.482;-0.580;2023-06-10T09:04:13;101202.53;;;25.82;41.54
64316;BME280;50652;51.482;-0.580;2023-06-10T09:06:40;101201.44;;;26.16;41.56
64316;BME280;50652;51.482;-0.580;2023-06-10T09:09:07;101204.36;;;25.82;41.74
64316;BME280;50652;51.482;-0.580;2023-06-10T09:11:34;101201.59;;;26.47;41.40
64316;BME280;50652;51.482;-0.580;2023-06-10T09:14:02;101197.92;;;26.66;41.32
64316;BME280;50652;51.482;-0.580;2023-06-10T09:16:29;101200.76;;;25.89;41.15
64316;BME280;50652;51.482;-0.580;2023-06-10T09:18:57;101200.36;;;26.86;40.29
64316;BME280;50652;51.482;-0.580;2023-06-10T09:21:25;101204.48;;;26.81;40.90
64316;BME280;50652;51.482;-0.580;2023-06-10T09:23:52;101204.41;;;27.02;39.71
64316;BME280;50652;51.482;-0.580;2023-06-10T09:26:20;101202.63;;;26.70;38.90
64316;BME280;50652;51.482;-0.580;2023-06-10T09:28:48;101199.30;;;26.83;39.89
64316;BME280;50652;51.482;-0.580;2023-06-10T09:31:16;101204.81;;;26.33;39.83
64316;BME280;50652;51.482;-0.580;2023-06-10T09:33:45;101202.15;;;26.47;39.86
64316;BME280;50652;51.482;-0.580;2023-06-10T09:36:21;101202.81;;;26.68;39.47
64316;BME280;50652;51.482;-0.580;2023-06-10T09:38:50;101206.99;;;26.64;40.09
64316;BME280;50652;51.482;-0.580;2023-06-10T09:41:16;101202.50;;;26.77;40.17
64316;BME280;50652;51.482;-0.580;2023-06-10T09:43:44;101200.10;;;27.22;39.26
64316;BME280;50652;51.482;-0.580;2023-06-10T09:46:16;101199.53;;;27.07;39.52
64316;BME280;50652;51.482;-0.580;2023-06-10T09:48:44;101197.95;;;26.83;39.35
64316;BME280;50652;51.482;-0.580;2023-06-10T09:51:12;101197.91;;;27.70;38.83
64316;BME280;50652;51.482;-0.580;2023-06-10T09:53:40;101197.63;;;27.80;38.31
64316;BME280;50652;51.482;-0.580;2023-06-10T09:56:07;101194.86;;;27.69;38.80
64316;BME280;50652;51.482;-0.580;2023-06-10T09:58:35;101196.37;;;27.70;38.85
64316;BME280;50652;51.482;-0.580;2023-06-10T10:01:06;101194.02;;;28.13;38.99
64316;BME280;50652;51.482;-0.580;2023-06-10T10:03:33;101189.21;;;28.02;37.75
64316;BME280;50652;51.482;-0.580;2023-06-10T10:06:00;101186.85;;;28.03;37.81
64316;BME280;50652;51.482;-0.580;2023-06-10T10:08:28;101186.09;;;28.42;38.39
64316;BME280;50652;51.482;-0.580;2023-06-10T10:10:56;101185.14;;;27.98;36.71
64316;BME280;50652;51.482;-0.580;2023-06-10T10:13:25;101184.43;;;28.11;37.14
64316;BME280;50652;51.482;-0.580;2023-06-10T10:15:53;101185.77;;;28.66;37.29
64316;BME280;50652;51.482;-0.580;2023-06-10T10:18:24;101185.19;;;28.49;37.85
64316;BME280;50652;51.482;-0.580;2023-06-10T10:20:53;101182.08;;;28.51;37.39
64316;BME280;50652;51.482;-0.580;2023-06-10T10:23:26;101179.99;;;28.06;37.91
64316;BME280;50652;51.482;-0.580;2023-06-10T10:25:57;101180.46;;;28.62;37.40
64316;BME280;50652;51.482;-0.580;2023-06-10T10:28:37;101181.28;;;28.26;37.92
64316;BME280;50652;51.482;-0.580;2023-06-10T10:31:08;101180.18;;;28.68;36.68
64316;BME280;50652;51.482;-0.580;2023-06-10T10:33:42;101177.07;;;28.83;37.27
64316;BME280;50652;51.482;-0.580;2023-06-10T10:36:13;101179.25;;;28.57;36.69
64316;BME280;50652;51.482;-0.580;2023-06-10T10:38:41;101176.00;;;29.40;36.76
64316;BME280;50652;51.482;-0.580;2023-06-10T10:41:10;101174.73;;;29.22;36.57
64316;BME280;50652;51.482;-0.580;2023-06-10T10:43:38;101170.80;;;29.29;37.33
64316;BME280;50652;51.482;-0.580;2023-06-10T10:46:17;101166.74;;;29.19;35.53
64316;BME280;50652;51.482;-0.580;2023-06-10T10:48:45;101166.95;;;30.08;36.16
64316;BME280;50652;51.482;-0.580;2023-06-10T10:51:15;101168.15;;;29.51;35.30
64316;BME280;50652;51.482;-0.580;2023-06-10T10:53:42;101166.71;;;29.78;35.04
64316;BME280;50652;51.482;-0.580;2023-06-10T10:56:14;101162.76;;;29.53;35.78
64316;BME280;50652;51.482;-0.580;2023-06-10T10:58:42;101161.07;;;30.10;34.42
64316;BME280;50652;51.482;-0.580;2023-06-10T11:01:11;101160.97;;;30.55;34.64
64316;BME280;50652;51.482;-0.580;2023-06-10T11:03:44;101158.04;;;30.37;34.86
64316;BME280;50652;51.482;-0.580;2023-06-10T11:06:13;101155.61;;;29.98;34.95
64316;BME280;50652;51.482;-0.580;2023-06-10T11:08:49;101153.76;;;30.19;34.10
64316;BME280;50652;51.482;-0.580;2023-06-10T11:11:20;101154.33;;;30.63;34.13
64316;BME280;50652;51.482;-0.580;2023-06-10T11:14:26;101148.15;;;30.34;32.92
64316;BME280;50652;51.482;-0.580;2023-06-10T11:16:57;101141.95;;;30.94;32.21
64316;BME280;50652;51.482;-0.580;2023-06-10T11:19:33;101140.97;;;30.50;32.65
64316;BME280;50652;51.482;-0.580;2023-06-10T11:22:01;101134.30;;;31.08;31.54
64316;BME280;50652;51.482;-0.580;2023-06-10T11:24:28;101131.04;;;31.35;31.99
64316;BME280;50652;51.482;-0.580;2023-06-10T11:27:14;101133.15;;;30.77;31.57
64316;BME280;50652;51.482;-0.580;2023-06-10T11:29:56;101125.96;;;30.92;31.19
64316;BME280;50652;51.482;-0.580;2023-06-10T11:32:23;101126.15;;;31.41;30.39
64316;BME280;50652;51.482;-0.580;2023-06-10T11:34:52;101128.82;;;30.80;31.26
64316;BME280;50652;51.482;-0.580;2023-06-10T11:37:20;101128.34;;;30.82;30.08
64316;BME280;50652;51.482;-0.580;2023-06-10T11:39:48;101126.02;;;31.05;30.92
64316;BME280;50652;51.482;-0.580;2023-06-10T11:42:18;101127.98;;;31.49;30.63
64316;BME280;50652;51.482;-0.580;2023-06-10T11:44:49;101122.56;;;31.56;30.31
64316;BME280;50652;51.482;-0.580;2023-06-10T11:47:16;101123.12;;;31.61;30.23
64316;BME280;50652;51.482;-0.580;2023-06-10T11:49:43;101113.99;;;31.21;29.76
64316;BME280;50652;51.482;-0.580;2023-06-10T11:52:10;101123.03;;;31.59;29.45
64316;BME280;50652;51.482;-0.580;2023-06-10T11:54:38;101115.94;;;31.63;29.82
64316;BME280;50652;51.482;-0.580;2023-06-10T11:57:05;101113.22;;;32.07;30.03
64316;BME280;50652;51.482;-0.580;2023-06-10T11:59:32;101109.31;;;32.19;29.98
64316;BME280;50652;51.482;-0.580;2023-06-10T12:01:59;101107.01;;;32.45;29.70
64316;BME280;50652;51.482;-0.580;2023-06-10T12:04:26;101108.17;;;32.57;29.78
64316;BME280;50652;51.482;-0.580;2023-06-10T12:06:55;101105.21;;;31.83;28.85
64316;BME280;50652;51.482;-0.580;2023-06-10T12:09:24;101104.89;;;32.49;29.02
64316;BME280;50652;51.482;-0.580;2023-06-10T12:11:54;101104.22;;;31.95;29.04
64316;BME280;50652;51.482;-0.580;2023-06-10T12:14:55;101098.71;;;32.14;28.33
64316;BME280;50652;51.482;-0.580;2023-06-10T12:17:23;101091.31;;;32.64;28.19
64316;BME280;50652;51.482;-0.580;2023-06-10T12:19:51;101095.10;;;32.57;28.29
64316;BME280;50652;51.482;-0.580;2023-06-10T12:22:18;101092.75;;;32.93;27.56
64316;BME280;50652;51.482;-0.580;2023-06-10T12:24:57;101095.48;;;32.46;28.32
64316;BME280;50652;51.482;-0.580;2023-06-10T12:27:24;101086.47;;;32.81;27.88
64316;BME280;50652;51.482;-0.580;2023-06-10T12:29:52;101081.43;;;32.85;27.80
64316;BME280;50652;51.482;-0.580;2023-06-10T12:32:19;101084.14;;;32.90;27.35
64316;BME280;50652;51.482;-0.580;2023-06-10T12:34:46;101081.26;;;32.96;26.31
64316;BME280;50652;51.482;-0.580;2023-06-10T12:37:13;101081.73;;;32.53;27.62
64316;BME280;50652;51.482;-0.580;2023-06-10T12:39:41;101075.86;;;33.13;27.54
64316;BME280;50652;51.482;-0.580;2023-06-10T12:42:09;101073.77;;;33.29;27.24
64316;BME280;50652;51.482;-0.580;2023-06-10T12:44:39;101078.29;;;32.85;27.64
64316;BME280;50652;51.482;-0.580;2023-06-10T12:47:08;101075.86;;;33.00;28.06